LiveATC.Net - Listen to live air traffic control over the Internet!


ICAO: KTVL  IATA: TVL   Airport: Lake Tahoe Airport
City: South Lake Tahoe   State/Province: California
Country: United States   Continent: North America
KTVL METAR Weather: KTVL 021153Z AUTO 18004KT 10SM CLR M01/M02 A3014 RMK AO2 SLP191 T10111022 10028 21011 53005
KTVL Flight Activity (FlightAware)
KTVL Airport Info   (AirNav) (iFlightPlanner)
KTVL VFR Sectional Chart   (iFlightPlanner) 
KTVL IFR Low Chart   (iFlightPlanner) 
KTVL CTAF/Unicom
Feed Status: DOWN
Last heard on: 2016-05-02 00:34:04 (0 days 11 hours 59 minutes ago)
KTVL CTAF/Unicom Audio Archives
FacilityFrequency
Lake Tahoe CTAF/UNICOM122.950


NOTICE

Unauthorized use prohibited. See LiveATC.net Terms of Service


Find LiveATC Audio Streams


Airport/ARTCC Code

Frequency
(e.g., 124.400, 128.75)
Site-wide search

Browse LiveATC Feeds
LiveATC Coverage Map
Top 50 LiveATC Feeds
Bad Weather Areas

LiveATC FAQ
Offer a LiveATC Feed
Contact LiveATC.net
Press Inquiries

LiveATC on iPhone
LiveATC on Android

Windows Phone
Windows 8/10

LiveATC Mobile
(Mobile browser)

ATC Audio Archives
Interesting Recordings

LiveATC Forums


Home Page
About LiveATC.net
Make a Donation
LiveATC Store

Terms of Use
Privacy Policy

Canadian Air Freqs

AIRMETs/SIGMETs

FAA Airport Status
Nat'l Airspace Status
Arrival Demand Charts


Server Software By:
Icecast.org
Liquidsoap